sensor_id;sensor_type;location;lat;lon;timestamp;P1;durP1;ratioP1;P2;durP2;ratioP2
70169;SDS011;57543;45.442;9.212;2023-04-24T00:02:43;9.18;;;5.78;;
70169;SDS011;57543;45.442;9.212;2023-04-24T00:05:50;10.45;;;5.88;;
70169;SDS011;57543;45.442;9.212;2023-04-24T00:08:54;10.70;;;5.65;;
70169;SDS011;57543;45.442;9.212;2023-04-24T00:11:58;10.27;;;5.50;;
70169;SDS011;57543;45.442;9.212;2023-04-24T00:15:02;9.88;;;5.05;;
70169;SDS011;57543;45.442;9.212;2023-04-24T00:18:06;7.30;;;4.75;;
70169;SDS011;57543;45.442;9.212;2023-04-24T00:21:10;7.35;;;4.63;;
70169;SDS011;57543;45.442;9.212;2023-04-24T00:24:18;7.30;;;4.18;;
70169;SDS011;57543;45.442;9.212;2023-04-24T00:27:22;8.07;;;5.20;;
70169;SDS011;57543;45.442;9.212;2023-04-24T00:30:26;8.63;;;5.00;;
70169;SDS011;57543;45.442;9.212;2023-04-24T00:33:29;9.45;;;4.88;;
70169;SDS011;57543;45.442;9.212;2023-04-24T00:36:36;7.97;;;5.55;;
70169;SDS011;57543;45.442;9.212;2023-04-24T00:39:40;9.15;;;5.10;;
70169;SDS011;57543;45.442;9.212;2023-04-24T00:42:43;9.77;;;5.17;;
70169;SDS011;57543;45.442;9.212;2023-04-24T00:45:48;8.02;;;4.60;;
70169;SDS011;57543;45.442;9.212;2023-04-24T00:48:52;7.60;;;4.90;;
70169;SDS011;57543;45.442;9.212;2023-04-24T00:51:56;7.65;;;4.90;;
70169;SDS011;57543;45.442;9.212;2023-04-24T00:55:00;10.50;;;5.60;;
70169;SDS011;57543;45.442;9.212;2023-04-24T00:58:04;9.53;;;5.50;;
70169;SDS011;57543;45.442;9.212;2023-04-24T01:01:07;9.45;;;5.40;;
70169;SDS011;57543;45.442;9.212;2023-04-24T01:04:12;7.85;;;4.75;;
70169;SDS011;57543;45.442;9.212;2023-04-24T01:07:18;8.15;;;5.22;;
70169;SDS011;57543;45.442;9.212;2023-04-24T01:10:24;7.97;;;4.50;;
70169;SDS011;57543;45.442;9.212;2023-04-24T01:13:29;7.73;;;4.43;;
70169;SDS011;57543;45.442;9.212;2023-04-24T01:16:35;8.50;;;5.20;;
70169;SDS011;57543;45.442;9.212;2023-04-24T01:19:38;9.52;;;5.15;;
70169;SDS011;57543;45.442;9.212;2023-04-24T01:22:43;8.27;;;5.20;;
70169;SDS011;57543;45.442;9.212;2023-04-24T01:25:46;8.73;;;5.35;;
70169;SDS011;57543;45.442;9.212;2023-04-24T01:28:52;8.57;;;5.07;;
70169;SDS011;57543;45.442;9.212;2023-04-24T01:31:56;7.28;;;4.32;;
70169;SDS011;57543;45.442;9.212;2023-04-24T01:35:05;8.38;;;5.10;;
70169;SDS011;57543;45.442;9.212;2023-04-24T01:38:09;8.25;;;4.93;;
70169;SDS011;57543;45.442;9.212;2023-04-24T01:41:14;7.38;;;4.80;;
70169;SDS011;57543;45.442;9.212;2023-04-24T01:44:22;7.33;;;4.60;;
70169;SDS011;57543;45.442;9.212;2023-04-24T01:47:26;8.70;;;5.15;;
70169;SDS011;57543;45.442;9.212;2023-04-24T01:50:30;8.38;;;5.10;;
70169;SDS011;57543;45.442;9.212;2023-04-24T01:53:35;9.07;;;5.30;;
70169;SDS011;57543;45.442;9.212;2023-04-24T01:56:43;8.02;;;5.28;;
70169;SDS011;57543;45.442;9.212;2023-04-24T01:59:47;9.37;;;4.93;;
70169;SDS011;57543;45.442;9.212;2023-04-24T02:02:52;8.98;;;5.35;;
70169;SDS011;57543;45.442;9.212;2023-04-24T02:05:55;10.07;;;5.80;;
70169;SDS011;57543;45.442;9.212;2023-04-24T02:09:01;9.10;;;5.40;;
70169;SDS011;57543;45.442;9.212;2023-04-24T02:12:06;7.38;;;4.97;;
70169;SDS011;57543;45.442;9.212;2023-04-24T02:15:10;8.73;;;5.40;;
70169;SDS011;57543;45.442;9.212;2023-04-24T02:18:14;10.23;;;5.13;;
70169;SDS011;57543;45.442;9.212;2023-04-24T02:21:18;11.18;;;6.07;;
70169;SDS011;57543;45.442;9.212;2023-04-24T02:24:22;10.45;;;6.22;;
70169;SDS011;57543;45.442;9.212;2023-04-24T02:27:25;9.82;;;6.47;;
70169;SDS011;57543;45.442;9.212;2023-04-24T02:30:29;8.27;;;5.57;;
70169;SDS011;57543;45.442;9.212;2023-04-24T02:33:33;9.88;;;5.65;;
70169;SDS011;57543;45.442;9.212;2023-04-24T02:36:37;9.35;;;5.90;;
70169;SDS011;57543;45.442;9.212;2023-04-24T02:39:40;9.60;;;5.93;;
70169;SDS011;57543;45.442;9.212;2023-04-24T02:42:44;8.68;;;5.82;;
70169;SDS011;57543;45.442;9.212;2023-04-24T02:45:47;11.37;;;6.37;;
70169;SDS011;57543;45.442;9.212;2023-04-24T02:48:52;11.52;;;6.78;;
70169;SDS011;57543;45.442;9.212;2023-04-24T02:51:55;10.73;;;6.38;;
70169;SDS011;57543;45.442;9.212;2023-04-24T02:54:59;11.35;;;6.95;;
70169;SDS011;57543;45.442;9.212;2023-04-24T02:58:06;9.60;;;6.28;;
70169;SDS011;57543;45.442;9.212;2023-04-24T03:01:10;10.73;;;6.37;;
70169;SDS011;57543;45.442;9.212;2023-04-24T03:04:14;9.38;;;6.40;;
70169;SDS011;57543;45.442;9.212;2023-04-24T03:07:18;10.27;;;6.28;;
70169;SDS011;57543;45.442;9.212;2023-04-24T03:10:24;9.88;;;6.35;;
70169;SDS011;57543;45.442;9.212;2023-04-24T03:13:28;9.30;;;5.85;;
70169;SDS011;57543;45.442;9.212;2023-04-24T03:16:31;9.47;;;6.03;;
70169;SDS011;57543;45.442;9.212;2023-04-24T03:19:36;10.00;;;5.93;;
70169;SDS011;57543;45.442;9.212;2023-04-24T03:22:45;9.52;;;6.20;;
70169;SDS011;57543;45.442;9.212;2023-04-24T03:25:49;12.55;;;6.55;;
70169;SDS011;57543;45.442;9.212;2023-04-24T03:28:53;12.73;;;7.05;;
70169;SDS011;57543;45.442;9.212;2023-04-24T03:32:00;11.30;;;6.50;;
70169;SDS011;57543;45.442;9.212;2023-04-24T03:35:04;10.65;;;6.07;;
70169;SDS011;57543;45.442;9.212;2023-04-24T03:38:09;10.85;;;6.72;;
70169;SDS011;57543;45.442;9.212;2023-04-24T03:41:19;11.65;;;6.70;;
70169;SDS011;57543;45.442;9.212;2023-04-24T03:44:26;10.43;;;6.10;;
70169;SDS011;57543;45.442;9.212;2023-04-24T03:47:30;10.43;;;6.10;;
70169;SDS011;57543;45.442;9.212;2023-04-24T03:50:36;9.65;;;5.90;;
70169;SDS011;57543;45.442;9.212;2023-04-24T03:53:41;9.77;;;5.70;;
70169;SDS011;57543;45.442;9.212;2023-04-24T03:56:46;9.88;;;5.80;;
70169;SDS011;57543;45.442;9.212;2023-04-24T03:59:50;9.57;;;5.93;;
70169;SDS011;57543;45.442;9.212;2023-04-24T04:02:56;7.83;;;5.10;;
70169;SDS011;57543;45.442;9.212;2023-04-24T04:05:59;7.18;;;4.95;;
70169;SDS011;57543;45.442;9.212;2023-04-24T04:09:03;8.20;;;4.78;;
70169;SDS011;57543;45.442;9.212;2023-04-24T04:12:07;8.77;;;4.60;;
70169;SDS011;57543;45.442;9.212;2023-04-24T04:15:12;6.85;;;4.35;;
70169;SDS011;57543;45.442;9.212;2023-04-24T04:18:15;7.07;;;4.10;;
70169;SDS011;57543;45.442;9.212;2023-04-24T04:21:19;6.40;;;4.35;;
70169;SDS011;57543;45.442;9.212;2023-04-24T04:24:25;7.15;;;4.57;;
70169;SDS011;57543;45.442;9.212;2023-04-24T04:27:29;7.35;;;4.57;;
70169;SDS011;57543;45.442;9.212;2023-04-24T04:30:39;8.93;;;5.18;;
70169;SDS011;57543;45.442;9.212;2023-04-24T04:33:43;9.10;;;4.40;;
70169;SDS011;57543;45.442;9.212;2023-04-24T04:36:47;8.15;;;4.95;;
70169;SDS011;57543;45.442;9.212;2023-04-24T04:40:13;10.20;;;6.38;;
70169;SDS011;57543;45.442;9.212;2023-04-24T04:43:31;10.80;;;5.80;;
70169;SDS011;57543;45.442;9.212;2023-04-24T04:46:36;11.13;;;6.40;;
70169;SDS011;57543;45.442;9.212;2023-04-24T04:49:57;13.13;;;8.10;;
70169;SDS011;57543;45.442;9.212;2023-04-24T04:53:04;13.25;;;8.63;;
70169;SDS011;57543;45.442;9.212;2023-04-24T04:56:11;14.43;;;8.30;;
70169;SDS011;57543;45.442;9.212;2023-04-24T04:59:22;13.63;;;8.38;;
70169;SDS011;57543;45.442;9.212;2023-04-24T05:02:30;13.82;;;8.55;;
70169;SDS011;57543;45.442;9.212;2023-04-24T05:05:33;14.07;;;8.83;;
70169;SDS011;57543;45.442;9.212;2023-04-24T05:08:38;13.45;;;8.02;;
70169;SDS011;57543;45.442;9.212;2023-04-24T05:11:45;11.52;;;8.20;;
70169;SDS011;57543;45.442;9.212;2023-04-24T05:14:49;11.95;;;8.07;;
70169;SDS011;57543;45.442;9.212;2023-04-24T05:17:53;9.07;;;6.10;;
70169;SDS011;57543;45.442;9.212;2023-04-24T05:20:56;10.43;;;6.63;;
70169;SDS011;57543;45.442;9.212;2023-04-24T05:24:01;10.80;;;5.78;;
70169;SDS011;57543;45.442;9.212;2023-04-24T05:27:20;9.20;;;5.72;;
70169;SDS011;57543;45.442;9.212;2023-04-24T05:30:25;7.38;;;4.65;;
70169;SDS011;57543;45.442;9.212;2023-04-24T05:33:29;10.13;;;5.65;;
70169;SDS011;57543;45.442;9.212;2023-04-24T05:36:33;7.80;;;4.50;;
70169;SDS011;57543;45.442;9.212;2023-04-24T05:39:37;8.85;;;5.32;;
70169;SDS011;57543;45.442;9.212;2023-04-24T05:42:41;9.00;;;5.25;;
70169;SDS011;57543;45.442;9.212;2023-04-24T05:45:44;7.90;;;4.70;;
70169;SDS011;57543;45.442;9.212;2023-04-24T05:48:47;10.63;;;5.60;;
70169;SDS011;57543;45.442;9.212;2023-04-24T05:51:51;8.03;;;5.00;;
70169;SDS011;57543;45.442;9.212;2023-04-24T05:54:54;8.20;;;4.88;;
70169;SDS011;57543;45.442;9.212;2023-04-24T05:58:01;8.60;;;5.07;;
70169;SDS011;57543;45.442;9.212;2023-04-24T06:01:05;9.35;;;5.45;;
70169;SDS011;57543;45.442;9.212;2023-04-24T06:04:10;9.93;;;5.50;;
70169;SDS011;57543;45.442;9.212;2023-04-24T06:07:16;8.60;;;5.60;;
70169;SDS011;57543;45.442;9.212;2023-04-24T06:10:21;9.18;;;4.40;;
70169;SDS011;57543;45.442;9.212;2023-04-24T06:13:25;8.07;;;4.25;;
70169;SDS011;57543;45.442;9.212;2023-04-24T06:16:51;10.02;;;3.90;;
70169;SDS011;57543;45.442;9.212;2023-04-24T06:20:07;9.27;;;3.72;;
70169;SDS011;57543;45.442;9.212;2023-04-24T06:23:11;6.40;;;3.47;;
70169;SDS011;57543;45.442;9.212;2023-04-24T06:26:15;6.05;;;3.30;;
70169;SDS011;57543;45.442;9.212;2023-04-24T06:29:22;7.55;;;3.47;;
70169;SDS011;57543;45.442;9.212;2023-04-24T06:32:26;5.90;;;3.20;;
70169;SDS011;57543;45.442;9.212;2023-04-24T06:35:31;7.13;;;3.28;;
70169;SDS011;57543;45.442;9.212;2023-04-24T06:38:34;6.07;;;3.23;;
70169;SDS011;57543;45.442;9.212;2023-04-24T06:41:38;5.68;;;3.60;;
70169;SDS011;57543;45.442;9.212;2023-04-24T06:44:45;6.57;;;3.10;;
70169;SDS011;57543;45.442;9.212;2023-04-24T06:47:50;6.80;;;3.15;;
70169;SDS011;57543;45.442;9.212;2023-04-24T06:50:53;6.43;;;3.20;;
70169;SDS011;57543;45.442;9.212;2023-04-24T06:53:57;5.43;;;3.23;;
70169;SDS011;57543;45.442;9.212;2023-04-24T06:57:01;5.88;;;3.30;;
70169;SDS011;57543;45.442;9.212;2023-04-24T07:00:06;5.47;;;3.10;;
70169;SDS011;57543;45.442;9.212;2023-04-24T07:03:12;5.55;;;3.10;;
70169;SDS011;57543;45.442;9.212;2023-04-24T07:06:15;5.50;;;3.20;;
70169;SDS011;57543;45.442;9.212;2023-04-24T07:09:22;5.10;;;3.20;;
70169;SDS011;57543;45.442;9.212;2023-04-24T07:12:26;7.63;;;3.22;;
70169;SDS011;57543;45.442;9.212;2023-04-24T07:15:30;6.18;;;3.20;;
70169;SDS011;57543;45.442;9.212;2023-04-24T07:18:35;6.53;;;3.92;;
70169;SDS011;57543;45.442;9.212;2023-04-24T07:21:39;7.47;;;3.53;;
70169;SDS011;57543;45.442;9.212;2023-04-24T07:24:43;5.63;;;3.67;;
70169;SDS011;57543;45.442;9.212;2023-04-24T07:27:47;6.40;;;3.97;;
70169;SDS011;57543;45.442;9.212;2023-04-24T07:30:52;6.32;;;3.47;;
70169;SDS011;57543;45.442;9.212;2023-04-24T07:33:57;6.75;;;3.80;;
70169;SDS011;57543;45.442;9.212;2023-04-24T07:37:03;6.53;;;3.20;;
70169;SDS011;57543;45.442;9.212;2023-04-24T07:40:07;5.83;;;3.40;;
70169;SDS011;57543;45.442;9.212;2023-04-24T07:43:11;7.97;;;3.85;;
70169;SDS011;57543;45.442;9.212;2023-04-24T07:46:15;6.82;;;3.45;;
70169;SDS011;57543;45.442;9.212;2023-04-24T07:49:19;6.55;;;3.60;;
70169;SDS011;57543;45.442;9.212;2023-04-24T07:52:23;7.82;;;3.78;;
70169;SDS011;57543;45.442;9.212;2023-04-24T07:55:26;11.53;;;5.13;;
70169;SDS011;57543;45.442;9.212;2023-04-24T07:58:30;8.20;;;3.83;;
70169;SDS011;57543;45.442;9.212;2023-04-24T08:01:34;7.00;;;3.92;;
70169;SDS011;57543;45.442;9.212;2023-04-24T08:04:38;6.30;;;3.75;;
70169;SDS011;57543;45.442;9.212;2023-04-24T08:07:41;7.07;;;4.35;;
70169;SDS011;57543;45.442;9.212;2023-04-24T08:10:45;8.50;;;4.40;;
70169;SDS011;57543;45.442;9.212;2023-04-24T08:13:49;7.55;;;4.15;;
70169;SDS011;57543;45.442;9.212;2023-04-24T08:16:54;7.68;;;4.60;;
70169;SDS011;57543;45.442;9.212;2023-04-24T08:19:59;7.95;;;4.65;;
70169;SDS011;57543;45.442;9.212;2023-04-24T08:23:04;11.20;;;5.38;;
70169;SDS011;57543;45.442;9.212;2023-04-24T08:26:08;8.10;;;4.13;;
70169;SDS011;57543;45.442;9.212;2023-04-24T08:29:12;6.53;;;4.03;;
70169;SDS011;57543;45.442;9.212;2023-04-24T08:32:16;8.10;;;4.40;;
70169;SDS011;57543;45.442;9.212;2023-04-24T08:35:20;7.35;;;4.88;;
70169;SDS011;57543;45.442;9.212;2023-04-24T08:38:24;10.07;;;5.22;;
70169;SDS011;57543;45.442;9.212;2023-04-24T08:41:29;7.00;;;3.97;;
70169;SDS011;57543;45.442;9.212;2023-04-24T08:44:34;9.38;;;4.90;;
70169;SDS011;57543;45.442;9.212;2023-04-24T08:47:39;7.68;;;4.80;;
70169;SDS011;57543;45.442;9.212;2023-04-24T08:50:44;5.30;;;3.03;;
70169;SDS011;57543;45.442;9.212;2023-04-24T08:53:47;7.03;;;3.33;;
70169;SDS011;57543;45.442;9.212;2023-04-24T08:56:51;4.50;;;2.60;;
70169;SDS011;57543;45.442;9.212;2023-04-24T08:59:56;5.00;;;2.60;;
70169;SDS011;57543;45.442;9.212;2023-04-24T09:03:01;4.88;;;2.80;;
70169;SDS011;57543;45.442;9.212;2023-04-24T09:06:06;4.90;;;2.83;;
70169;SDS011;57543;45.442;9.212;2023-04-24T09:09:12;5.88;;;2.83;;
70169;SDS011;57543;45.442;9.212;2023-04-24T09:12:17;5.53;;;2.60;;
70169;SDS011;57543;45.442;9.212;2023-04-24T09:15:21;7.57;;;2.40;;
70169;SDS011;57543;45.442;9.212;2023-04-24T09:18:25;4.68;;;2.70;;
70169;SDS011;57543;45.442;9.212;2023-04-24T09:21:33;5.22;;;2.30;;
70169;SDS011;57543;45.442;9.212;2023-04-24T09:24:37;5.40;;;2.63;;
70169;SDS011;57543;45.442;9.212;2023-04-24T09:27:44;5.33;;;2.40;;
70169;SDS011;57543;45.442;9.212;2023-04-24T09:31:01;4.03;;;1.90;;
70169;SDS011;57543;45.442;9.212;2023-04-24T09:34:10;5.72;;;2.80;;
70169;SDS011;57543;45.442;9.212;2023-04-24T09:37:27;5.47;;;2.60;;
70169;SDS011;57543;45.442;9.212;2023-04-24T09:40:33;5.07;;;2.40;;
70169;SDS011;57543;45.442;9.212;2023-04-24T09:43:38;7.27;;;2.67;;
70169;SDS011;57543;45.442;9.212;2023-04-24T09:46:45;4.85;;;2.78;;
70169;SDS011;57543;45.442;9.212;2023-04-24T09:49:57;6.70;;;2.80;;
70169;SDS011;57543;45.442;9.212;2023-04-24T09:53:01;5.85;;;2.70;;
70169;SDS011;57543;45.442;9.212;2023-04-24T09:56:07;6.20;;;2.70;;
70169;SDS011;57543;45.442;9.212;2023-04-24T09:59:13;4.27;;;2.60;;
70169;SDS011;57543;45.442;9.212;2023-04-24T10:02:18;5.70;;;2.92;;
70169;SDS011;57543;45.442;9.212;2023-04-24T10:05:28;4.85;;;2.67;;
70169;SDS011;57543;45.442;9.212;2023-04-24T10:08:36;5.03;;;2.30;;
70169;SDS011;57543;45.442;9.212;2023-04-24T10:11:44;4.68;;;2.40;;
70169;SDS011;57543;45.442;9.212;2023-04-24T10:14:49;4.50;;;2.50;;
70169;SDS011;57543;45.442;9.212;2023-04-24T10:17:54;5.32;;;2.33;;
70169;SDS011;57543;45.442;9.212;2023-04-24T10:20:58;4.95;;;3.00;;
70169;SDS011;57543;45.442;9.212;2023-04-24T10:24:04;4.53;;;2.70;;
70169;SDS011;57543;45.442;9.212;2023-04-24T10:27:08;4.63;;;1.90;;
70169;SDS011;57543;45.442;9.212;2023-04-24T10:30:13;5.07;;;2.27;;
70169;SDS011;57543;45.442;9.212;2023-04-24T10:33:17;4.47;;;1.52;;
70169;SDS011;57543;45.442;9.212;2023-04-24T10:36:21;3.20;;;1.60;;
70169;SDS011;57543;45.442;9.212;2023-04-24T10:39:29;3.00;;;1.30;;
70169;SDS011;57543;45.442;9.212;2023-04-24T10:42:34;3.35;;;1.50;;
70169;SDS011;57543;45.442;9.212;2023-04-24T10:45:38;5.00;;;1.70;;
70169;SDS011;57543;45.442;9.212;2023-04-24T10:48:43;3.63;;;1.30;;
70169;SDS011;57543;45.442;9.212;2023-04-24T10:51:51;3.90;;;1.85;;
70169;SDS011;57543;45.442;9.212;2023-04-24T10:54:56;4.85;;;2.30;;
70169;SDS011;57543;45.442;9.212;2023-04-24T10:58:04;4.47;;;1.58;;
70169;SDS011;57543;45.442;9.212;2023-04-24T11:01:08;3.73;;;1.50;;
70169;SDS011;57543;45.442;9.212;2023-04-24T11:04:12;3.88;;;1.80;;
70169;SDS011;57543;45.442;9.212;2023-04-24T11:07:16;3.42;;;1.50;;
70169;SDS011;57543;45.442;9.212;2023-04-24T11:10:26;3.95;;;1.75;;
70169;SDS011;57543;45.442;9.212;2023-04-24T11:16:58;3.20;;;1.67;;
70169;SDS011;57543;45.442;9.212;2023-04-24T11:20:04;3.45;;;1.70;;
70169;SDS011;57543;45.442;9.212;2023-04-24T11:23:11;4.28;;;2.15;;
70169;SDS011;57543;45.442;9.212;2023-04-24T11:26:19;3.45;;;1.60;;
70169;SDS011;57543;45.442;9.212;2023-04-24T11:32:50;4.00;;;2.00;;
70169;SDS011;57543;45.442;9.212;2023-04-24T11:35:54;3.95;;;1.40;;
70169;SDS011;57543;45.442;9.212;2023-04-24T11:38:58;3.38;;;1.52;;
70169;SDS011;57543;45.442;9.212;2023-04-24T11:42:02;3.20;;;1.30;;
70169;SDS011;57543;45.442;9.212;2023-04-24T11:45:07;3.40;;;1.60;;
70169;SDS011;57543;45.442;9.212;2023-04-24T11:48:12;3.43;;;1.20;;
70169;SDS011;57543;45.442;9.212;2023-04-24T11:51:15;3.40;;;1.30;;
70169;SDS011;57543;45.442;9.212;2023-04-24T11:54:20;2.88;;;1.30;;
70169;SDS011;57543;45.442;9.212;2023-04-24T11:57:23;3.30;;;1.10;;
70169;SDS011;57543;45.442;9.212;2023-04-24T12:00:31;2.75;;;1.10;;
70169;SDS011;57543;45.442;9.212;2023-04-24T12:03:37;3.20;;;1.43;;
70169;SDS011;57543;45.442;9.212;2023-04-24T12:06:58;2.55;;;1.20;;
70169;SDS011;57543;45.442;9.212;2023-04-24T12:10:02;2.70;;;1.20;;
70169;SDS011;57543;45.442;9.212;2023-04-24T12:13:09;2.85;;;1.38;;
70169;SDS011;57543;45.442;9.212;2023-04-24T12:16:13;2.97;;;1.08;;
70169;SDS011;57543;45.442;9.212;2023-04-24T12:19:23;2.80;;;1.20;;
70169;SDS011;57543;45.442;9.212;2023-04-24T12:22:28;2.72;;;1.35;;
70169;SDS011;57543;45.442;9.212;2023-04-24T12:25:45;2.38;;;1.00;;
70169;SDS011;57543;45.442;9.212;2023-04-24T12:28:49;2.55;;;1.10;;
70169;SDS011;57543;45.442;9.212;2023-04-24T12:31:53;2.67;;;1.00;;
70169;SDS011;57543;45.442;9.212;2023-04-24T12:34:57;3.07;;;1.20;;
70169;SDS011;57543;45.442;9.212;2023-04-24T12:38:34;2.50;;;1.10;;
70169;SDS011;57543;45.442;9.212;2023-04-24T12:41:33;2.78;;;1.10;;
70169;SDS011;57543;45.442;9.212;2023-04-24T12:44:36;2.67;;;1.00;;
70169;SDS011;57543;45.442;9.212;2023-04-24T12:47:40;2.75;;;1.08;;
70169;SDS011;57543;45.442;9.212;2023-04-24T12:50:45;2.63;;;1.00;;
70169;SDS011;57543;45.442;9.212;2023-04-24T12:53:51;2.35;;;1.10;;
70169;SDS011;57543;45.442;9.212;2023-04-24T12:56:55;2.60;;;0.93;;
70169;SDS011;57543;45.442;9.212;2023-04-24T12:59:59;2.42;;;1.10;;
70169;SDS011;57543;45.442;9.212;2023-04-24T13:03:03;2.83;;;0.80;;
70169;SDS011;57543;45.442;9.212;2023-04-24T13:06:08;2.93;;;1.30;;
70169;SDS011;57543;45.442;9.212;2023-04-24T13:09:11;2.10;;;0.80;;
70169;SDS011;57543;45.442;9.212;2023-04-24T13:12:15;3.35;;;1.30;;
70169;SDS011;57543;45.442;9.212;2023-04-24T13:15:19;2.80;;;1.17;;
70169;SDS011;57543;45.442;9.212;2023-04-24T13:18:23;2.88;;;1.08;;
70169;SDS011;57543;45.442;9.212;2023-04-24T13:21:27;2.40;;;1.00;;
70169;SDS011;57543;45.442;9.212;2023-04-24T13:24:31;2.13;;;0.88;;
70169;SDS011;57543;45.442;9.212;2023-04-24T13:27:35;2.58;;;0.80;;
70169;SDS011;57543;45.442;9.212;2023-04-24T13:30:40;2.30;;;0.90;;
70169;SDS011;57543;45.442;9.212;2023-04-24T13:33:47;3.20;;;0.73;;
70169;SDS011;57543;45.442;9.212;2023-04-24T13:36:54;2.30;;;0.80;;
70169;SDS011;57543;45.442;9.212;2023-04-24T13:39:59;2.42;;;0.90;;
70169;SDS011;57543;45.442;9.212;2023-04-24T13:43:02;2.28;;;0.80;;
70169;SDS011;57543;45.442;9.212;2023-04-24T13:46:06;2.75;;;0.80;;
70169;SDS011;57543;45.442;9.212;2023-04-24T13:49:10;2.20;;;0.90;;
70169;SDS011;57543;45.442;9.212;2023-04-24T13:52:14;2.33;;;0.90;;
70169;SDS011;57543;45.442;9.212;2023-04-24T13:55:17;3.28;;;0.88;;
70169;SDS011;57543;45.442;9.212;2023-04-24T13:58:23;2.10;;;1.02;;
70169;SDS011;57543;45.442;9.212;2023-04-24T14:01:28;1.70;;;0.60;;
70169;SDS011;57543;45.442;9.212;2023-04-24T14:04:31;2.05;;;0.70;;
70169;SDS011;57543;45.442;9.212;2023-04-24T14:07:34;2.43;;;0.90;;
70169;SDS011;57543;45.442;9.212;2023-04-24T14:10:38;2.28;;;1.10;;
70169;SDS011;57543;45.442;9.212;2023-04-24T14:13:41;2.78;;;1.10;;
70169;SDS011;57543;45.442;9.212;2023-04-24T14:16:48;3.03;;;1.10;;
70169;SDS011;57543;45.442;9.212;2023-04-24T14:19:52;1.50;;;0.70;;
70169;SDS011;57543;45.442;9.212;2023-04-24T14:23:01;1.80;;;0.50;;
70169;SDS011;57543;45.442;9.212;2023-04-24T14:26:06;1.40;;;0.70;;
70169;SDS011;57543;45.442;9.212;2023-04-24T14:29:09;2.15;;;0.70;;
70169;SDS011;57543;45.442;9.212;2023-04-24T14:32:13;2.40;;;0.80;;
70169;SDS011;57543;45.442;9.212;2023-04-24T14:35:19;3.47;;;0.80;;
70169;SDS011;57543;45.442;9.212;2023-04-24T14:38:23;2.17;;;0.80;;
70169;SDS011;57543;45.442;9.212;2023-04-24T14:41:26;2.17;;;0.90;;
70169;SDS011;57543;45.442;9.212;2023-04-24T14:44:30;3.33;;;0.90;;
70169;SDS011;57543;45.442;9.212;2023-04-24T14:47:36;1.80;;;0.80;;
70169;SDS011;57543;45.442;9.212;2023-04-24T14:50:40;2.00;;;0.90;;
70169;SDS011;57543;45.442;9.212;2023-04-24T14:53:43;2.60;;;1.10;;
70169;SDS011;57543;45.442;9.212;2023-04-24T14:56:46;1.77;;;0.73;;
70169;SDS011;57543;45.442;9.212;2023-04-24T14:59:52;2.45;;;0.93;;
70169;SDS011;57543;45.442;9.212;2023-04-24T15:02:56;2.72;;;0.80;;
70169;SDS011;57543;45.442;9.212;2023-04-24T15:06:00;2.10;;;0.80;;
70169;SDS011;57543;45.442;9.212;2023-04-24T15:09:04;2.20;;;0.90;;
70169;SDS011;57543;45.442;9.212;2023-04-24T15:12:08;2.22;;;1.00;;
70169;SDS011;57543;45.442;9.212;2023-04-24T15:15:11;1.90;;;0.80;;
70169;SDS011;57543;45.442;9.212;2023-04-24T15:18:14;2.15;;;0.80;;
70169;SDS011;57543;45.442;9.212;2023-04-24T15:21:18;2.20;;;0.90;;
70169;SDS011;57543;45.442;9.212;2023-04-24T15:24:21;3.30;;;0.90;;
70169;SDS011;57543;45.442;9.212;2023-04-24T15:27:27;2.38;;;0.80;;
70169;SDS011;57543;45.442;9.212;2023-04-24T15:30:31;2.28;;;0.90;;
70169;SDS011;57543;45.442;9.212;2023-04-24T15:33:34;2.83;;;0.90;;
70169;SDS011;57543;45.442;9.212;2023-04-24T15:36:38;1.92;;;0.70;;
70169;SDS011;57543;45.442;9.212;2023-04-24T15:39:42;2.80;;;0.83;;
70169;SDS011;57543;45.442;9.212;2023-04-24T15:42:47;2.13;;;0.80;;
70169;SDS011;57543;45.442;9.212;2023-04-24T15:45:51;2.55;;;1.00;;
70169;SDS011;57543;45.442;9.212;2023-04-24T15:48:57;3.05;;;1.00;;
70169;SDS011;57543;45.442;9.212;2023-04-24T15:52:02;2.38;;;0.88;;
70169;SDS011;57543;45.442;9.212;2023-04-24T15:55:06;2.30;;;0.80;;
70169;SDS011;57543;45.442;9.212;2023-04-24T15:58:10;2.40;;;1.10;;
70169;SDS011;57543;45.442;9.212;2023-04-24T16:01:13;2.38;;;0.88;;
70169;SDS011;57543;45.442;9.212;2023-04-24T16:04:17;1.90;;;0.80;;
70169;SDS011;57543;45.442;9.212;2023-04-24T16:07:21;2.78;;;0.93;;
70169;SDS011;57543;45.442;9.212;2023-04-24T16:10:25;2.17;;;0.90;;
70169;SDS011;57543;45.442;9.212;2023-04-24T16:13:29;2.88;;;0.98;;
70169;SDS011;57543;45.442;9.212;2023-04-24T16:16:34;2.95;;;0.90;;
70169;SDS011;57543;45.442;9.212;2023-04-24T16:19:38;2.42;;;1.00;;
70169;SDS011;57543;45.442;9.212;2023-04-24T16:22:41;2.60;;;1.17;;
70169;SDS011;57543;45.442;9.212;2023-04-24T16:25:45;3.53;;;1.20;;
70169;SDS011;57543;45.442;9.212;2023-04-24T16:28:48;3.03;;;1.10;;
70169;SDS011;57543;45.442;9.212;2023-04-24T16:31:52;3.78;;;1.10;;
70169;SDS011;57543;45.442;9.212;2023-04-24T16:34:55;2.10;;;0.80;;
70169;SDS011;57543;45.442;9.212;2023-04-24T16:37:58;3.55;;;1.10;;
70169;SDS011;57543;45.442;9.212;2023-04-24T16:41:02;2.40;;;0.90;;
70169;SDS011;57543;45.442;9.212;2023-04-24T16:44:06;3.20;;;1.15;;
70169;SDS011;57543;45.442;9.212;2023-04-24T16:47:10;3.60;;;1.00;;
70169;SDS011;57543;45.442;9.212;2023-04-24T16:50:16;3.38;;;0.90;;
70169;SDS011;57543;45.442;9.212;2023-04-24T16:53:19;2.75;;;1.20;;
70169;SDS011;57543;45.442;9.212;2023-04-24T16:56:23;3.77;;;1.20;;
70169;SDS011;57543;45.442;9.212;2023-04-24T16:59:28;2.53;;;1.20;;
70169;SDS011;57543;45.442;9.212;2023-04-24T17:02:33;3.53;;;1.10;;
70169;SDS011;57543;45.442;9.212;2023-04-24T17:05:38;3.22;;;1.20;;
70169;SDS011;57543;45.442;9.212;2023-04-24T17:08:42;2.33;;;0.90;;
70169;SDS011;57543;45.442;9.212;2023-04-24T17:11:46;2.70;;;1.17;;
70169;SDS011;57543;45.442;9.212;2023-04-24T17:14:49;2.78;;;1.27;;
70169;SDS011;57543;45.442;9.212;2023-04-24T17:17:53;2.97;;;1.10;;
70169;SDS011;57543;45.442;9.212;2023-04-24T17:20:57;3.15;;;1.17;;
70169;SDS011;57543;45.442;9.212;2023-04-24T17:24:00;3.65;;;1.15;;
70169;SDS011;57543;45.442;9.212;2023-04-24T17:27:04;2.67;;;1.10;;
70169;SDS011;57543;45.442;9.212;2023-04-24T17:30:10;2.70;;;1.20;;
70169;SDS011;57543;45.442;9.212;2023-04-24T17:33:14;3.33;;;1.20;;
70169;SDS011;57543;45.442;9.212;2023-04-24T17:36:18;3.35;;;1.10;;
70169;SDS011;57543;45.442;9.212;2023-04-24T17:39:21;2.80;;;1.20;;
70169;SDS011;57543;45.442;9.212;2023-04-24T17:42:25;3.97;;;1.20;;
70169;SDS011;57543;45.442;9.212;2023-04-24T17:45:28;3.58;;;1.40;;
70169;SDS011;57543;45.442;9.212;2023-04-24T17:48:33;3.45;;;1.40;;
70169;SDS011;57543;45.442;9.212;2023-04-24T17:51:37;3.55;;;1.10;;
70169;SDS011;57543;45.442;9.212;2023-04-24T17:54:40;3.20;;;1.20;;
70169;SDS011;57543;45.442;9.212;2023-04-24T17:57:44;3.00;;;1.27;;
70169;SDS011;57543;45.442;9.212;2023-04-24T18:00:48;2.88;;;1.10;;
70169;SDS011;57543;45.442;9.212;2023-04-24T18:03:51;2.90;;;1.23;;
70169;SDS011;57543;45.442;9.212;2023-04-24T18:06:55;4.05;;;1.45;;
70169;SDS011;57543;45.442;9.212;2023-04-24T18:10:01;3.35;;;1.15;;
70169;SDS011;57543;45.442;9.212;2023-04-24T18:13:05;2.97;;;1.20;;
70169;SDS011;57543;45.442;9.212;2023-04-24T18:16:09;2.55;;;1.02;;
70169;SDS011;57543;45.442;9.212;2023-04-24T18:19:12;3.30;;;1.13;;
70169;SDS011;57543;45.442;9.212;2023-04-24T18:22:15;2.50;;;0.98;;
70169;SDS011;57543;45.442;9.212;2023-04-24T18:25:19;2.95;;;1.08;;
70169;SDS011;57543;45.442;9.212;2023-04-24T18:28:28;2.83;;;1.17;;
70169;SDS011;57543;45.442;9.212;2023-04-24T18:31:33;3.22;;;1.40;;
70169;SDS011;57543;45.442;9.212;2023-04-24T18:34:36;3.70;;;1.80;;
70169;SDS011;57543;45.442;9.212;2023-04-24T18:37:40;4.05;;;1.48;;
70169;SDS011;57543;45.442;9.212;2023-04-24T18:40:43;4.53;;;1.60;;